createdAt,value
2023-05-06T00:00:26.025Z,86.1361
2023-05-06T00:01:26.286Z,86.1462
2023-05-06T00:02:26.655Z,86.3653
2023-05-06T00:03:27.019Z,86.7945
2023-05-06T00:04:27.483Z,86.9853
2023-05-06T00:05:27.777Z,87.1542
2023-05-06T00:06:28.072Z,87.3034
2023-05-06T00:07:28.393Z,86.9628
2023-05-06T00:08:28.679Z,86.9811
2023-05-06T00:09:29.039Z,87.2571
2023-05-06T00:10:29.407Z,87.2605
2023-05-06T00:11:29.712Z,87.4601
2023-05-06T00:12:30.025Z,87.6092
2023-05-06T00:13:30.381Z,87.6638
2023-05-06T00:14:30.711Z,87.5859
2023-05-06T00:15:32.190Z,87.5052
2023-05-06T00:16:32.911Z,87.4354
2023-05-06T00:17:33.501Z,87.0003
2023-05-06T00:18:33.958Z,86.9008
2023-05-06T00:19:34.277Z,86.9736
2023-05-06T00:20:34.565Z,87.1938
2023-05-06T00:21:34.884Z,87.1098
2023-05-06T00:22:35.251Z,87.2100
2023-05-06T00:23:35.607Z,87.1060
2023-05-06T00:24:35.981Z,86.8097
2023-05-06T00:25:36.377Z,86.6310
2023-05-06T00:26:36.701Z,86.4118
2023-05-06T00:27:37.016Z,86.1293
2023-05-06T00:28:37.330Z,85.9453
2023-05-06T00:29:37.646Z,85.5939
2023-05-06T00:30:37.999Z,85.2353
2023-05-06T00:31:38.342Z,84.9877
2023-05-06T00:32:38.766Z,84.5855
2023-05-06T00:33:39.006Z,84.5454
2023-05-06T00:34:39.326Z,85.0439
2023-05-06T00:35:39.623Z,85.7573
2023-05-06T00:36:39.913Z,86.3565
2023-05-06T00:37:40.191Z,86.6549
2023-05-06T00:38:40.587Z,86.8524
2023-05-06T00:39:40.885Z,86.6972
2023-05-06T00:40:41.316Z,86.6443
2023-05-06T00:41:41.594Z,86.6189
2023-05-06T00:42:41.979Z,86.5135
2023-05-06T00:43:42.290Z,86.2347
2023-05-06T00:44:42.570Z,86.2557
2023-05-06T00:45:42.838Z,86.1942
2023-05-06T00:46:43.104Z,86.1127
2023-05-06T00:47:43.463Z,86.1016
2023-05-06T00:48:43.799Z,85.9477
2023-05-06T00:49:44.121Z,86.0469
2023-05-06T00:50:44.389Z,86.0704
2023-05-06T00:51:44.735Z,85.9685
2023-05-06T00:52:45.072Z,85.9218
2023-05-06T00:53:45.402Z,85.7423
2023-05-06T00:54:45.829Z,85.6508
2023-05-06T00:55:46.171Z,85.6663
2023-05-06T00:56:46.462Z,85.7202
2023-05-06T00:57:46.830Z,85.5020
2023-05-06T00:58:47.152Z,85.3099
2023-05-06T00:59:47.512Z,85.4115
2023-05-06T01:00:47.900Z,85.1452
2023-05-06T01:01:48.217Z,84.9659
2023-05-06T01:02:48.596Z,84.8402
2023-05-06T01:03:49.087Z,84.9049
2023-05-06T01:04:49.590Z,84.9949
2023-05-06T01:05:49.890Z,85.0263
2023-05-06T01:06:50.214Z,85.1596
2023-05-06T01:07:50.564Z,85.2692
2023-05-06T01:08:50.862Z,85.4294
2023-05-06T01:09:51.182Z,85.5692
2023-05-06T01:10:51.536Z,85.7159
2023-05-06T01:11:51.833Z,85.8917
2023-05-06T01:12:52.199Z,86.2707
2023-05-06T01:13:52.450Z,86.6747
2023-05-06T01:14:52.761Z,87.4130
2023-05-06T01:15:53.088Z,87.9293
2023-05-06T01:16:53.413Z,88.2216
2023-05-06T01:17:53.811Z,88.2107
2023-05-06T01:18:54.105Z,88.0605
2023-05-06T01:19:54.436Z,88.4970
2023-05-06T01:20:54.784Z,88.3414
2023-05-06T01:21:55.108Z,88.4091
2023-05-06T01:22:55.394Z,88.4736
2023-05-06T01:23:55.747Z,88.3969
2023-05-06T01:24:55.993Z,88.2215
2023-05-06T01:25:56.292Z,87.9543
2023-05-06T01:26:56.621Z,87.5688
2023-05-06T01:27:56.951Z,87.4266
2023-05-06T01:28:57.251Z,87.3359
2023-05-06T01:29:57.565Z,87.3097
2023-05-06T01:30:57.963Z,87.1934
2023-05-06T01:31:58.308Z,87.3157
2023-05-06T01:32:58.636Z,87.1847
2023-05-06T01:33:59.062Z,86.7690
2023-05-06T01:34:59.345Z,86.5129
2023-05-06T01:35:59.649Z,86.6202
2023-05-06T01:36:59.923Z,86.6450
2023-05-06T01:38:00.228Z,86.6967
2023-05-06T01:39:00.490Z,86.8415
2023-05-06T01:40:00.791Z,86.9883
2023-05-06T01:41:01.070Z,87.0896
2023-05-06T01:42:01.454Z,87.0166
2023-05-06T01:43:01.772Z,87.0596
2023-05-06T01:44:02.082Z,87.1905
2023-05-06T01:45:02.364Z,87.3727
2023-05-06T01:46:02.694Z,87.7871
2023-05-06T01:47:03.018Z,87.7137
2023-05-06T01:48:03.391Z,87.8824
2023-05-06T01:49:03.746Z,88.2144
2023-05-06T01:50:04.103Z,88.2020
2023-05-06T01:51:04.433Z,88.2712
2023-05-06T01:52:04.829Z,88.1785
2023-05-06T01:53:05.214Z,88.0408
2023-05-06T01:54:05.652Z,88.1078
2023-05-06T01:55:06.213Z,88.2023
2023-05-06T01:56:06.603Z,88.2017
2023-05-06T01:57:06.976Z,88.2740
2023-05-06T01:58:07.365Z,88.2964
2023-05-06T01:59:07.726Z,88.2685
2023-05-06T02:00:08.111Z,88.3172
2023-05-06T02:01:08.741Z,88.2885
2023-05-06T02:02:09.389Z,88.0864
2023-05-06T02:03:09.856Z,87.9872
2023-05-06T02:04:10.188Z,87.8677
2023-05-06T02:05:10.740Z,87.7683
2023-05-06T02:06:11.607Z,87.7469
2023-05-06T02:07:11.973Z,87.7030
2023-05-06T02:08:12.527Z,87.6868
2023-05-06T02:09:12.884Z,87.5603
2023-05-06T02:10:13.218Z,87.5214
2023-05-06T02:11:13.558Z,87.4141
2023-05-06T02:12:13.876Z,87.2115
2023-05-06T02:13:14.329Z,87.1256
2023-05-06T02:14:14.784Z,87.4211
2023-05-06T02:15:15.082Z,87.4486
2023-05-06T02:16:15.467Z,87.5507
2023-05-06T02:17:15.775Z,87.6468
2023-05-06T02:18:16.146Z,88.3277
2023-05-06T02:19:17.182Z,88.7188
2023-05-06T02:20:17.522Z,88.3690
2023-05-06T02:21:17.960Z,88.2576
2023-05-06T02:22:18.325Z,88.2609
2023-05-06T02:23:18.691Z,88.3679
2023-05-06T02:24:19.083Z,88.1362
2023-05-06T02:25:19.445Z,88.1180
2023-05-06T02:26:19.802Z,88.1134
2023-05-06T02:27:20.126Z,88.0714
2023-05-06T02:28:20.493Z,87.8691
2023-05-06T02:29:20.892Z,88.0435
2023-05-06T02:30:21.292Z,88.2492
2023-05-06T02:31:21.995Z,88.7056
2023-05-06T02:32:22.439Z,88.9690
2023-05-06T02:33:22.880Z,88.9610
2023-05-06T02:34:23.275Z,88.6400
2023-05-06T02:35:23.640Z,88.5338
2023-05-06T02:36:24.059Z,88.3730
2023-05-06T02:37:24.403Z,88.2060
2023-05-06T02:38:24.780Z,88.1256
2023-05-06T02:39:25.176Z,88.2453
2023-05-06T02:40:25.873Z,88.3412
2023-05-06T02:41:26.363Z,88.3158
2023-05-06T02:42:26.713Z,88.3871
2023-05-06T02:43:27.152Z,88.6566
2023-05-06T02:44:27.495Z,88.6263
2023-05-06T02:45:27.942Z,88.5511
2023-05-06T02:46:28.285Z,88.4499
2023-05-06T02:47:28.707Z,88.2398
2023-05-06T02:48:29.108Z,88.2053
2023-05-06T02:49:29.513Z,88.2617
2023-05-06T02:50:29.919Z,88.3384
2023-05-06T02:51:30.301Z,88.3197
2023-05-06T02:52:30.685Z,88.2910
2023-05-06T02:53:30.999Z,88.2703
2023-05-06T02:54:31.374Z,88.4579
2023-05-06T02:55:31.784Z,88.5002
2023-05-06T02:56:32.159Z,88.6772
2023-05-06T02:57:32.477Z,88.7784
2023-05-06T02:58:32.877Z,88.7351
2023-05-06T02:59:33.190Z,88.8861
2023-05-06T03:00:33.655Z,89.0825
2023-05-06T03:01:34.061Z,89.1858
2023-05-06T03:02:34.492Z,89.1667
2023-05-06T03:03:34.883Z,89.1864
2023-05-06T03:04:35.403Z,89.1184
2023-05-06T03:05:36.080Z,89.1255
2023-05-06T03:06:36.471Z,89.0891
2023-05-06T03:07:37.012Z,89.1003
2023-05-06T03:08:37.401Z,89.1676
2023-05-06T03:09:37.787Z,89.1779
2023-05-06T03:10:38.173Z,89.1678
2023-05-06T03:11:38.557Z,89.3087
2023-05-06T03:12:38.986Z,89.4520
2023-05-06T03:13:39.310Z,89.4445
2023-05-06T03:14:39.827Z,89.3804
2023-05-06T03:15:40.189Z,89.4796
2023-05-06T03:16:40.570Z,89.5883
2023-05-06T03:17:40.896Z,89.5944
2023-05-06T03:18:41.212Z,89.6090
2023-05-06T03:19:41.575Z,89.4831
2023-05-06T03:20:41.929Z,89.4092
2023-05-06T03:21:42.335Z,89.4408
2023-05-06T03:22:42.664Z,89.5868
2023-05-06T03:23:43.040Z,89.6159
2023-05-06T03:24:43.397Z,89.7098
2023-05-06T03:25:43.823Z,89.9274
2023-05-06T03:26:44.140Z,89.8958
2023-05-06T03:27:44.460Z,89.8166
2023-05-06T03:28:44.780Z,89.7231
2023-05-06T03:29:45.199Z,89.6516
2023-05-06T03:30:45.661Z,89.6484
2023-05-06T03:31:46.041Z,89.6303
2023-05-06T03:32:46.429Z,89.5411
2023-05-06T03:33:46.741Z,89.5733
2023-05-06T03:34:47.130Z,89.7736
2023-05-06T03:35:47.548Z,89.7294
2023-05-06T03:36:47.880Z,89.9158
2023-05-06T03:37:48.272Z,89.9701
2023-05-06T03:38:48.665Z,90.0736
2023-05-06T03:39:48.996Z,90.2181
2023-05-06T03:40:49.435Z,90.2471
2023-05-06T03:41:49.801Z,90.2523
2023-05-06T03:42:50.152Z,90.3317
2023-05-06T03:43:50.522Z,90.4373
2023-05-06T03:44:50.895Z,90.4132
2023-05-06T03:45:51.468Z,90.4097
2023-05-06T03:46:51.847Z,90.5251
2023-05-06T03:47:52.268Z,90.6376
2023-05-06T03:48:52.617Z,90.6719
2023-05-06T03:49:52.997Z,90.6783
2023-05-06T03:50:53.383Z,90.6319
2023-05-06T03:51:53.696Z,90.7001
2023-05-06T03:52:54.015Z,90.7689
2023-05-06T03:53:54.927Z,90.7833
2023-05-06T03:54:55.557Z,90.7421
2023-05-06T03:55:55.902Z,90.5762
2023-05-06T03:56:56.311Z,90.5141
2023-05-06T03:57:56.622Z,90.3641
2023-05-06T03:58:56.965Z,90.3520
2023-05-06T03:59:57.308Z,90.5781
2023-05-06T04:00:57.651Z,90.5814
2023-05-06T04:01:58.082Z,90.6386
2023-05-06T04:02:58.517Z,90.7189
2023-05-06T04:03:58.940Z,90.8396
2023-05-06T04:04:59.312Z,90.7172
2023-05-06T04:05:59.741Z,90.8559
2023-05-06T04:07:00.108Z,90.8739
2023-05-06T04:08:00.486Z,90.8041
2023-05-06T04:09:00.878Z,90.9922
2023-05-06T04:10:01.252Z,91.2080
2023-05-06T04:11:01.625Z,91.1618
2023-05-06T04:12:01.977Z,91.1902
2023-05-06T04:13:02.377Z,91.0117
2023-05-06T04:14:02.742Z,91.0586
2023-05-06T04:15:03.136Z,91.0285
2023-05-06T04:16:03.616Z,91.1482
2023-05-06T04:17:03.999Z,91.1169
2023-05-06T04:18:04.381Z,91.0799
2023-05-06T04:19:06.512Z,90.9752
2023-05-06T04:20:07.283Z,90.7830
2023-05-06T04:21:07.730Z,90.6913
2023-05-06T04:22:08.252Z,90.7950
2023-05-06T04:23:08.586Z,90.7886
2023-05-06T04:24:08.965Z,90.6886
2023-05-06T04:25:09.708Z,90.5999
2023-05-06T04:26:10.496Z,90.6977
2023-05-06T04:27:10.838Z,90.6973
2023-05-06T04:28:11.224Z,90.3415
2023-05-06T04:29:11.567Z,90.1127
2023-05-06T04:30:11.908Z,90.0521
2023-05-06T04:31:12.305Z,89.8921
2023-05-06T04:32:12.692Z,89.8661
2023-05-06T04:33:13.091Z,89.7959
2023-05-06T04:34:13.467Z,89.8121
2023-05-06T04:35:13.822Z,89.7696
2023-05-06T04:36:14.237Z,89.8142
2023-05-06T04:37:14.596Z,89.8478
2023-05-06T04:38:14.976Z,89.9480
2023-05-06T04:39:15.338Z,90.0487
2023-05-06T04:40:15.697Z,90.1163
2023-05-06T04:41:16.089Z,90.0798
2023-05-06T04:42:16.528Z,90.1358
2023-05-06T04:43:16.902Z,90.0145
2023-05-06T04:44:17.315Z,90.0808
2023-05-06T04:45:17.637Z,90.1260
2023-05-06T04:46:18.046Z,90.1173
2023-05-06T04:47:18.514Z,90.2195
2023-05-06T04:48:18.905Z,90.2230
2023-05-06T04:49:19.359Z,90.2243
2023-05-06T04:50:19.769Z,90.1276
2023-05-06T04:51:20.119Z,90.0453
2023-05-06T04:52:20.499Z,89.7737
2023-05-06T04:53:20.957Z,89.5639
2023-05-06T04:54:21.366Z,89.3709
2023-05-06T04:55:21.737Z,89.2610
2023-05-06T04:56:22.084Z,89.1578
2023-05-06T04:57:22.425Z,89.2242
2023-05-06T04:58:22.758Z,89.1401
2023-05-06T04:59:23.177Z,88.8611
2023-05-06T05:00:23.586Z,89.0029
2023-05-06T05:01:24.047Z,89.4165
2023-05-06T05:02:24.522Z,89.4457
2023-05-06T05:03:25.013Z,89.1605
2023-05-06T05:04:25.468Z,89.3786
2023-05-06T05:05:25.890Z,89.6867
2023-05-06T05:06:26.219Z,89.7419
2023-05-06T05:07:26.589Z,89.5319
2023-05-06T05:08:26.963Z,89.4397
2023-05-06T05:09:27.313Z,89.3278
2023-05-06T05:10:27.688Z,89.4961
2023-05-06T05:11:28.093Z,89.4350
2023-05-06T05:12:28.494Z,89.3632
2023-05-06T05:13:28.809Z,89.2968
2023-05-06T05:14:29.198Z,89.1077
2023-05-06T05:15:29.614Z,89.0110
2023-05-06T05:16:30.021Z,88.8574
2023-05-06T05:17:30.454Z,88.8353
2023-05-06T05:18:30.856Z,88.6613
2023-05-06T05:19:31.198Z,88.6210
2023-05-06T05:20:31.686Z,88.7224
2023-05-06T05:21:32.195Z,88.6404
2023-05-06T05:22:32.583Z,88.7253
2023-05-06T05:23:32.907Z,88.7138
2023-05-06T05:24:33.289Z,88.8682
2023-05-06T05:25:33.692Z,88.5921
2023-05-06T05:26:34.040Z,88.1298
2023-05-06T05:27:34.439Z,87.6276
2023-05-06T05:28:34.820Z,87.3589
2023-05-06T05:29:35.128Z,87.0048
2023-05-06T05:30:35.449Z,86.9742
2023-05-06T05:31:35.803Z,86.9563
2023-05-06T05:32:36.247Z,86.9242
2023-05-06T05:33:36.761Z,87.0418
2023-05-06T05:34:37.163Z,87.3806
2023-05-06T05:35:37.469Z,87.8354
2023-05-06T05:36:37.820Z,87.6996
2023-05-06T05:37:38.174Z,88.1703
2023-05-06T05:38:38.555Z,88.8013
2023-05-06T05:39:38.990Z,89.0999
2023-05-06T05:40:39.312Z,89.2592
2023-05-06T05:41:39.628Z,89.1498
2023-05-06T05:42:39.987Z,88.9669
2023-05-06T05:43:40.311Z,89.1196
2023-05-06T05:44:40.956Z,88.8552
2023-05-06T05:45:41.297Z,88.5295
2023-05-06T05:46:41.674Z,88.4930
2023-05-06T05:47:42.137Z,88.5387
2023-05-06T05:48:42.441Z,88.7079
2023-05-06T05:49:42.838Z,88.4835
2023-05-06T05:50:43.167Z,88.2588
2023-05-06T05:51:43.648Z,88.1237
2023-05-06T05:52:43.973Z,88.1051
2023-05-06T05:53:44.320Z,88.3542
2023-05-06T05:54:44.661Z,88.0853
2023-05-06T05:55:44.987Z,87.7540
2023-05-06T05:56:45.363Z,87.7539
2023-05-06T05:57:45.722Z,87.6677
2023-05-06T05:58:46.138Z,87.6636
2023-05-06T05:59:46.654Z,87.4667
2023-05-06T06:00:47.043Z,87.3757
2023-05-06T06:01:47.356Z,87.5770
2023-05-06T06:02:47.789Z,88.1127
2023-05-06T06:03:48.423Z,88.1522
2023-05-06T06:04:49.095Z,88.1682
2023-05-06T06:05:49.528Z,88.2391
2023-05-06T06:06:49.889Z,88.1783
2023-05-06T06:07:50.205Z,88.1524
2023-05-06T06:08:50.589Z,87.9071
2023-05-06T06:09:50.943Z,87.6472
2023-05-06T06:10:51.271Z,87.1411
2023-05-06T06:11:51.632Z,87.1948
2023-05-06T06:12:52.088Z,87.1326
2023-05-06T06:13:52.713Z,86.7233
2023-05-06T06:14:53.050Z,86.5487
2023-05-06T06:15:53.414Z,86.4438
2023-05-06T06:16:53.805Z,86.2259
2023-05-06T06:17:54.261Z,86.1205
2023-05-06T06:18:54.748Z,86.2949
2023-05-06T06:19:55.113Z,86.1846
2023-05-06T06:20:55.441Z,85.9216
2023-05-06T06:21:55.795Z,85.9105
2023-05-06T06:22:56.123Z,85.7933
2023-05-06T06:23:56.471Z,86.0607
2023-05-06T06:24:56.860Z,86.5357
2023-05-06T06:25:57.181Z,86.8804
2023-05-06T06:26:57.520Z,86.9770
2023-05-06T06:27:57.862Z,86.7962
2023-05-06T06:28:58.287Z,86.4801
2023-05-06T06:29:58.631Z,86.4315
2023-05-06T06:30:59.033Z,86.4791
2023-05-06T06:31:59.476Z,86.8388
2023-05-06T06:32:59.890Z,86.6710
2023-05-06T06:34:00.272Z,86.6652
2023-05-06T06:35:00.630Z,86.5681
2023-05-06T06:36:00.996Z,86.9302
2023-05-06T06:37:01.301Z,87.4477
2023-05-06T06:38:01.677Z,87.3154
2023-05-06T06:39:01.997Z,87.3365
2023-05-06T06:40:02.356Z,87.5097
2023-05-06T06:41:02.673Z,87.4965
2023-05-06T06:42:02.990Z,87.1204
2023-05-06T06:43:03.305Z,86.8824
2023-05-06T06:44:03.704Z,87.0093
2023-05-06T06:45:04.094Z,86.8317
2023-05-06T06:46:04.475Z,86.5784
2023-05-06T06:47:04.839Z,86.4150
2023-05-06T06:48:05.213Z,86.3138
2023-05-06T06:49:05.596Z,85.8894
2023-05-06T06:50:05.973Z,85.4494
2023-05-06T06:51:06.433Z,84.9542
2023-05-06T06:52:06.812Z,84.4491
2023-05-06T06:53:07.207Z,84.2366
2023-05-06T06:54:07.576Z,83.7922
2023-05-06T06:55:08.198Z,83.7079
2023-05-06T06:56:08.746Z,83.3565
2023-05-06T06:57:09.170Z,83.0419
2023-05-06T06:58:09.568Z,83.0841
2023-05-06T06:59:10.034Z,83.1408
2023-05-06T07:00:10.467Z,83.0829
2023-05-06T07:01:10.885Z,83.0742
2023-05-06T07:02:11.280Z,82.6890
2023-05-06T07:03:11.677Z,82.4117
2023-05-06T07:04:12.102Z,82.6179
2023-05-06T07:05:12.746Z,82.7944
2023-05-06T07:06:13.354Z,83.0993
2023-05-06T07:07:13.759Z,82.8016
2023-05-06T07:08:14.127Z,82.6333
2023-05-06T07:09:14.554Z,82.3603
2023-05-06T07:10:14.907Z,81.7130
2023-05-06T07:11:15.289Z,81.1842
2023-05-06T07:12:15.773Z,81.6140
2023-05-06T07:13:16.257Z,81.7761
2023-05-06T07:14:16.656Z,82.6477
2023-05-06T07:15:17.043Z,83.4925
2023-05-06T07:16:17.445Z,83.7595
2023-05-06T07:17:17.810Z,83.6682
2023-05-06T07:18:18.238Z,83.1643
2023-05-06T07:19:18.646Z,82.9310
2023-05-06T07:20:19.017Z,83.2445
2023-05-06T07:21:19.427Z,83.3688
2023-05-06T07:22:19.776Z,83.3500
2023-05-06T07:23:20.217Z,83.3212
2023-05-06T07:24:20.581Z,82.8362
2023-05-06T07:25:21.022Z,82.0831
2023-05-06T07:26:21.365Z,81.5877
2023-05-06T07:27:21.886Z,81.5497
2023-05-06T07:28:22.328Z,81.5602
2023-05-06T07:29:22.692Z,81.2808
2023-05-06T07:30:23.495Z,81.3146
2023-05-06T07:31:24.086Z,81.0612
2023-05-06T07:32:24.501Z,80.4746
2023-05-06T07:33:24.902Z,80.2318
2023-05-06T07:34:25.338Z,81.0232
2023-05-06T07:35:25.738Z,81.7233
2023-05-06T07:36:26.157Z,81.0698
2023-05-06T07:37:26.580Z,81.4581
2023-05-06T07:38:26.995Z,81.3844
2023-05-06T07:39:27.366Z,81.0657
2023-05-06T07:40:27.768Z,81.4954
2023-05-06T07:41:28.147Z,82.4598
2023-05-06T07:42:28.566Z,81.9952
2023-05-06T07:43:28.996Z,81.8237
2023-05-06T07:44:29.451Z,82.0342
2023-05-06T07:45:29.853Z,82.0350
2023-05-06T07:46:31.283Z,82.1650
2023-05-06T07:47:31.794Z,82.1033
2023-05-06T07:48:32.301Z,82.3833
2023-05-06T07:49:32.701Z,82.2506
2023-05-06T07:50:33.020Z,81.2039
2023-05-06T07:51:33.333Z,80.8172
2023-05-06T07:52:33.665Z,80.6718
2023-05-06T07:53:34.045Z,81.0622
2023-05-06T07:54:34.460Z,81.0955
2023-05-06T07:55:35.267Z,81.1790
2023-05-06T07:56:35.951Z,80.5693
2023-05-06T07:57:36.319Z,80.3516
2023-05-06T07:58:36.711Z,79.9020
2023-05-06T07:59:37.067Z,79.7337
2023-05-06T08:00:37.426Z,79.9962
2023-05-06T08:01:37.740Z,79.8922
2023-05-06T08:02:38.164Z,79.1778
2023-05-06T08:03:38.755Z,79.4106
2023-05-06T08:04:39.205Z,78.9035
2023-05-06T08:05:39.611Z,78.7205
2023-05-06T08:06:39.980Z,78.6233
2023-05-06T08:07:40.346Z,78.3660
2023-05-06T08:08:40.653Z,78.4984
2023-05-06T08:09:41.047Z,78.1032
2023-05-06T08:10:41.440Z,77.8677
2023-05-06T08:11:41.831Z,78.0440
2023-05-06T08:12:42.198Z,77.9615
2023-05-06T08:13:42.589Z,78.2560
2023-05-06T08:14:42.968Z,78.2882
2023-05-06T08:15:43.331Z,77.9512
2023-05-06T08:16:43.732Z,76.5634
2023-05-06T08:17:44.103Z,75.4250
2023-05-06T08:18:44.395Z,74.9849
2023-05-06T08:19:44.702Z,74.3875
2023-05-06T08:20:45.072Z,74.2737
2023-05-06T08:21:45.349Z,74.8362
2023-05-06T08:22:45.693Z,74.0577
2023-05-06T08:23:45.993Z,73.6698
2023-05-06T08:24:46.378Z,72.7018
2023-05-06T08:25:46.727Z,72.3773
2023-05-06T08:26:47.126Z,73.0816
2023-05-06T08:27:47.420Z,72.8464
2023-05-06T08:28:47.834Z,72.0258
2023-05-06T08:29:48.099Z,71.6269
2023-05-06T08:30:48.498Z,70.8435
2023-05-06T08:31:48.959Z,70.5531
2023-05-06T08:32:49.409Z,69.9218
2023-05-06T08:33:49.691Z,70.1048
2023-05-06T08:34:50.013Z,70.2916
2023-05-06T08:35:50.341Z,70.4723
2023-05-06T08:36:50.730Z,71.4969
2023-05-06T08:37:51.018Z,70.3026
2023-05-06T08:38:51.380Z,70.4733
2023-05-06T08:39:51.666Z,70.5742
2023-05-06T08:40:52.017Z,70.7139
2023-05-06T08:41:52.368Z,70.5512
2023-05-06T08:42:52.697Z,70.6570
2023-05-06T08:43:53.045Z,70.7578
2023-05-06T08:44:53.377Z,70.9723
2023-05-06T08:45:53.842Z,70.9885
2023-05-06T08:46:54.216Z,70.4626
2023-05-06T08:47:54.511Z,69.7295
2023-05-06T08:48:54.795Z,69.3872
2023-05-06T08:49:55.062Z,69.4147
2023-05-06T08:50:55.404Z,68.8889
2023-05-06T08:51:55.707Z,68.5629
2023-05-06T08:52:56.009Z,69.8973
2023-05-06T08:53:56.416Z,70.5377
2023-05-06T08:54:56.777Z,69.4585
2023-05-06T08:55:57.121Z,69.4878
2023-05-06T08:56:57.465Z,69.8201
2023-05-06T08:57:57.801Z,68.9859
2023-05-06T08:58:58.154Z,69.4721
2023-05-06T08:59:58.497Z,68.7091
2023-05-06T09:00:58.945Z,67.5794
2023-05-06T09:01:59.313Z,67.3734
2023-05-06T09:02:59.733Z,67.5024
2023-05-06T09:04:00.133Z,68.8036
2023-05-06T09:05:00.546Z,68.9342
2023-05-06T09:06:00.937Z,68.6014
2023-05-06T09:07:01.302Z,68.6332
2023-05-06T09:08:01.661Z,68.4589
2023-05-06T09:09:02.048Z,69.0865
2023-05-06T09:10:02.419Z,69.7404
2023-05-06T09:11:02.800Z,69.3892
2023-05-06T09:12:03.253Z,68.5337
2023-05-06T09:13:03.612Z,68.7999
2023-05-06T09:14:04.007Z,68.3258
2023-05-06T09:15:04.348Z,67.4317
2023-05-06T09:16:04.749Z,66.9368
2023-05-06T09:17:05.183Z,66.0406
2023-05-06T09:18:05.628Z,65.2293
2023-05-06T09:19:06.034Z,67.3437
2023-05-06T09:20:06.405Z,67.4467
2023-05-06T09:21:06.708Z,66.2062
2023-05-06T09:22:07.032Z,67.3886
2023-05-06T09:23:07.363Z,67.9253
2023-05-06T09:24:07.678Z,67.4673
2023-05-06T09:25:08.299Z,67.6180
2023-05-06T09:26:08.793Z,68.0286
2023-05-06T09:27:10.618Z,68.7115
2023-05-06T09:28:11.605Z,68.3463
2023-05-06T09:29:11.957Z,68.6841
2023-05-06T09:30:12.513Z,68.3438
2023-05-06T09:31:12.944Z,68.6865
2023-05-06T09:32:13.259Z,69.1712
2023-05-06T09:33:13.657Z,68.4652
2023-05-06T09:34:13.986Z,68.2758
2023-05-06T09:35:14.482Z,67.8774
2023-05-06T09:36:15.169Z,67.7446
2023-05-06T09:37:15.492Z,67.6836
2023-05-06T09:38:15.895Z,67.6325
2023-05-06T09:39:16.247Z,68.1134
2023-05-06T09:40:16.685Z,68.5692
2023-05-06T09:41:17.073Z,68.9201
2023-05-06T09:42:17.462Z,68.3733
2023-05-06T09:43:17.812Z,67.4394
2023-05-06T09:44:18.129Z,66.9340
2023-05-06T09:45:19.521Z,66.3583
2023-05-06T09:46:19.908Z,66.3616
2023-05-06T09:47:20.247Z,66.8172
2023-05-06T09:48:20.619Z,67.0440
2023-05-06T09:49:20.960Z,67.7230
2023-05-06T09:50:21.287Z,66.9416
2023-05-06T09:51:21.585Z,66.5019
2023-05-06T09:52:21.977Z,66.8831
2023-05-06T09:53:22.343Z,66.8964
2023-05-06T09:54:22.667Z,66.6814
2023-05-06T09:55:23.116Z,65.9168
2023-05-06T09:56:23.427Z,65.3226
2023-05-06T09:57:23.814Z,64.5122
2023-05-06T09:58:24.150Z,64.1504
2023-05-06T09:59:24.480Z,64.3098
2023-05-06T10:00:24.788Z,62.9143
2023-05-06T10:01:36.166Z,61.9617
2023-05-06T10:02:25.881Z,62.0193
2023-05-06T10:03:26.300Z,62.0172
2023-05-06T10:04:26.922Z,63.0880
2023-05-06T10:05:27.574Z,63.9259
2023-05-06T10:06:27.915Z,64.2199
2023-05-06T10:07:28.271Z,63.9985
2023-05-06T10:08:28.597Z,62.8797
2023-05-06T10:09:28.924Z,63.0897
2023-05-06T10:10:29.267Z,62.8762
2023-05-06T10:11:29.618Z,62.1956
2023-05-06T10:12:29.976Z,62.0086
2023-05-06T10:13:30.329Z,64.0375
2023-05-06T10:14:30.620Z,65.2746
2023-05-06T10:15:30.997Z,65.2099
2023-05-06T10:16:31.381Z,64.1185
2023-05-06T10:17:31.839Z,63.9784
2023-05-06T10:18:32.162Z,64.0002
2023-05-06T10:19:32.513Z,63.6172
2023-05-06T10:20:32.890Z,62.8559
2023-05-06T10:21:33.244Z,62.9124
2023-05-06T10:22:33.649Z,62.3394
2023-05-06T10:23:33.951Z,61.8950
2023-05-06T10:24:34.247Z,61.8684
2023-05-06T10:25:34.642Z,62.3274
2023-05-06T10:26:35.069Z,61.4960
2023-05-06T10:27:35.386Z,61.8982
2023-05-06T10:28:35.769Z,62.6472
2023-05-06T10:29:36.213Z,61.7546
2023-05-06T10:30:36.606Z,61.9146
2023-05-06T10:31:37.075Z,62.5041
2023-05-06T10:32:37.414Z,62.6784
2023-05-06T10:33:38.015Z,61.8014
2023-05-06T10:34:39.117Z,60.4948
2023-05-06T10:35:39.434Z,60.5475
2023-05-06T10:36:39.733Z,59.7281
2023-05-06T10:37:40.079Z,59.0212
2023-05-06T10:38:40.403Z,58.6876
2023-05-06T10:39:42.097Z,58.2887
2023-05-06T10:40:42.653Z,59.0632
2023-05-06T10:41:42.996Z,58.5037
2023-05-06T10:42:43.320Z,58.3270
2023-05-06T10:43:43.629Z,58.7363
2023-05-06T10:44:45.051Z,58.6150
2023-05-06T10:45:43.873Z,59.0451
2023-05-06T10:46:44.213Z,58.9245
2023-05-06T10:47:44.578Z,59.4377
2023-05-06T10:48:44.880Z,58.7277
2023-05-06T10:49:45.189Z,58.9717
2023-05-06T10:50:46.833Z,58.1106
2023-05-06T10:51:47.292Z,57.0654
2023-05-06T10:52:47.610Z,57.4098
2023-05-06T10:53:47.922Z,57.7433
2023-05-06T10:54:48.244Z,56.1894
2023-05-06T10:55:48.568Z,56.3320
2023-05-06T10:56:48.856Z,55.8594
2023-05-06T10:57:49.199Z,56.1296
2023-05-06T10:58:49.488Z,54.9492
2023-05-06T10:59:49.843Z,53.9512
2023-05-06T11:00:50.118Z,52.8367
2023-05-06T11:01:50.399Z,53.1991
2023-05-06T11:02:50.766Z,54.4946
2023-05-06T11:03:51.026Z,54.8312
2023-05-06T11:04:51.345Z,55.3195
2023-05-06T11:05:51.674Z,54.9729
2023-05-06T11:06:52.011Z,54.8903
2023-05-06T11:07:52.360Z,54.3408
2023-05-06T11:08:52.642Z,53.3976
2023-05-06T11:09:52.982Z,51.7338
2023-05-06T11:10:53.276Z,50.7625
2023-05-06T11:11:53.530Z,50.2823
2023-05-06T11:12:53.957Z,50.4678
2023-05-06T11:13:54.302Z,51.7664
2023-05-06T11:14:54.549Z,51.9491
2023-05-06T11:15:54.839Z,51.9334
2023-05-06T11:16:55.179Z,50.1177
2023-05-06T11:17:55.573Z,48.6394
2023-05-06T11:18:56.046Z,49.2575
2023-05-06T11:19:56.333Z,48.9605
2023-05-06T11:20:56.613Z,47.9288
2023-05-06T11:21:56.870Z,49.7823
2023-05-06T11:22:57.160Z,52.9282
2023-05-06T11:23:57.460Z,53.9210
2023-05-06T11:24:57.686Z,54.5308
2023-05-06T11:25:57.920Z,53.9158
2023-05-06T11:26:58.188Z,54.2123
2023-05-06T11:27:58.449Z,54.8429
2023-05-06T11:28:58.774Z,55.0578
2023-05-06T11:29:58.995Z,54.5546
2023-05-06T11:30:59.296Z,55.6052
2023-05-06T11:31:59.584Z,56.5710
2023-05-06T11:32:59.917Z,56.8098
2023-05-06T11:34:00.223Z,56.8739
2023-05-06T11:35:00.524Z,57.2804
2023-05-06T11:36:00.772Z,56.8317
2023-05-06T11:37:01.003Z,56.5486
2023-05-06T11:38:01.308Z,56.2299
2023-05-06T11:39:03.522Z,55.9101
2023-05-06T11:40:02.648Z,54.9674
2023-05-06T11:41:02.998Z,54.3771
2023-05-06T11:42:03.247Z,54.0321
2023-05-06T11:43:03.540Z,53.1824
2023-05-06T11:44:03.783Z,52.9707
2023-05-06T11:45:04.139Z,52.3246
2023-05-06T11:46:04.476Z,52.1318
2023-05-06T11:47:04.793Z,52.5964
2023-05-06T11:48:05.184Z,53.8024
2023-05-06T11:49:05.464Z,53.4750
2023-05-06T11:50:05.769Z,52.7732
2023-05-06T11:51:06.147Z,53.3610
2023-05-06T11:52:06.444Z,54.5456
2023-05-06T11:53:06.779Z,54.4121
2023-05-06T11:54:07.160Z,53.5762
2023-05-06T11:55:07.418Z,53.1452
2023-05-06T11:56:07.722Z,53.0706
2023-05-06T11:57:08.052Z,53.1167
2023-05-06T11:58:08.464Z,53.4019
2023-05-06T11:59:08.786Z,53.4564
2023-05-06T12:00:09.279Z,53.6513
2023-05-06T12:01:09.714Z,52.7882
2023-05-06T12:02:10.041Z,52.7206
2023-05-06T12:03:10.453Z,53.2642
2023-05-06T12:04:10.932Z,53.6091
2023-05-06T12:05:11.290Z,53.0367
2023-05-06T12:06:11.573Z,52.8411
2023-05-06T12:07:11.922Z,52.9055
2023-05-06T12:08:23.551Z,51.1751
2023-05-06T12:09:12.714Z,50.4075
2023-05-06T12:10:13.206Z,50.1165